createdAt,value
2017-01-27T00:00:35.238Z,1017.11
2017-01-27T00:01:44.668Z,1017.08
2017-01-27T00:02:53.761Z,1017.07
2017-01-27T00:04:03.592Z,1017
2017-01-27T00:05:13.031Z,1016.96
2017-01-27T00:06:22.077Z,1016.94
2017-01-27T00:07:31.502Z,1016.95
2017-01-27T00:08:41.679Z,1016.92
2017-01-27T00:09:51.095Z,1016.92
2017-01-27T00:11:00.906Z,1016.87
2017-01-27T00:12:10.331Z,1016.84
2017-01-27T00:13:19.008Z,1016.82
2017-01-27T00:14:28.436Z,1016.84
2017-01-27T00:15:38.625Z,1016.84
2017-01-27T00:16:47.692Z,1016.89
2017-01-27T00:17:56.730Z,1016.86
2017-01-27T00:19:06.581Z,1016.83
2017-01-27T00:20:15.621Z,1016.86
2017-01-27T00:21:25.059Z,1016.84
2017-01-27T00:22:34.890Z,1016.86
2017-01-27T00:23:44.305Z,1016.8
2017-01-27T00:24:53.750Z,1016.76
2017-01-27T00:26:03.631Z,1016.7
2017-01-27T00:27:12.290Z,1016.7
2017-01-27T00:28:21.747Z,1016.78
2017-01-27T00:29:31.924Z,1016.68
2017-01-27T00:30:42.106Z,1016.71
2017-01-27T00:31:52.330Z,1016.64
2017-01-27T00:33:00.978Z,1016.58
2017-01-27T00:34:10.391Z,1016.59
2017-01-27T00:35:19.806Z,1016.6
2017-01-27T00:36:29.230Z,1016.57
2017-01-27T00:37:38.657Z,1016.64
2017-01-27T00:38:47.713Z,1016.59
2017-01-27T00:39:56.773Z,1016.58
2017-01-27T00:41:06.613Z,1016.6
2017-01-27T00:42:16.031Z,1016.57
2017-01-27T00:43:25.848Z,1016.6
2017-01-27T00:44:35.342Z,1016.59
2017-01-27T00:45:43.997Z,1016.64
2017-01-27T00:46:53.903Z,1016.63
2017-01-27T00:48:03.328Z,1016.59
2017-01-27T00:49:12.347Z,1016.58
2017-01-27T00:50:21.391Z,1016.53
2017-01-27T00:51:30.823Z,1016.58
2017-01-27T00:52:40.627Z,1016.49
2017-01-27T00:53:50.047Z,1016.48
2017-01-27T00:54:59.078Z,1016.45
2017-01-27T00:56:08.120Z,1016.42
2017-01-27T00:57:17.168Z,1016.41
2017-01-27T00:58:26.588Z,1016.4
2017-01-27T00:59:35.632Z,1016.43
2017-01-27T01:00:45.467Z,1016.39
2017-01-27T01:01:54.505Z,1016.44
2017-01-27T01:03:03.936Z,1016.42
2017-01-27T01:04:12.981Z,1016.38
2017-01-27T01:05:22.045Z,1016.29
2017-01-27T01:06:31.080Z,1016.36
2017-01-27T01:07:40.913Z,1016.39
2017-01-27T01:08:49.946Z,1016.35
2017-01-27T01:09:59.740Z,1016.39
2017-01-27T01:11:09.609Z,1016.32
2017-01-27T01:12:19.028Z,1016.32
2017-01-27T01:13:29.210Z,1016.29
2017-01-27T01:14:39.013Z,1016.25
2017-01-27T01:15:49.198Z,1016.31
2017-01-27T01:16:58.614Z,1016.32
2017-01-27T01:18:07.655Z,1016.42
2017-01-27T01:19:16.691Z,1016.36
2017-01-27T01:20:26.103Z,1016.3
2017-01-27T01:21:36.279Z,1016.29
2017-01-27T01:22:46.066Z,1016.27
2017-01-27T01:23:54.715Z,1016.31
2017-01-27T01:25:04.134Z,1016.28
2017-01-27T01:26:13.550Z,1016.31
2017-01-27T01:27:23.394Z,1016.26
2017-01-27T01:28:33.199Z,1016.31
2017-01-27T01:29:42.612Z,1016.35
2017-01-27T01:30:51.643Z,1016.22
2017-01-27T01:32:00.300Z,1016.28
2017-01-27T01:33:10.096Z,1016.23
2017-01-27T01:34:19.510Z,1016.21
2017-01-27T01:35:28.923Z,1016.19
2017-01-27T01:36:37.572Z,1016.25
2017-01-27T01:37:47.364Z,1016.19
2017-01-27T01:38:56.390Z,1016.24
2017-01-27T01:40:05.419Z,1016.17
2017-01-27T01:41:14.074Z,1016.15
2017-01-27T01:42:23.104Z,1016.14
2017-01-27T01:43:32.136Z,1016.09
2017-01-27T01:44:40.788Z,1016.11
2017-01-27T01:45:49.440Z,1016.04
2017-01-27T01:46:58.108Z,1016.04
2017-01-27T01:48:07.911Z,1016.04
2017-01-27T01:49:16.944Z,1015.98
2017-01-27T01:50:26.006Z,1015.98
2017-01-27T01:51:35.802Z,1015.96
2017-01-27T01:52:44.459Z,1015.91
2017-01-27T01:53:53.868Z,1015.94
2017-01-27T01:55:04.072Z,1015.92
2017-01-27T01:56:13.481Z,1015.96
2017-01-27T01:57:23.285Z,1015.91
2017-01-27T01:58:33.100Z,1015.91
2017-01-27T01:59:43.284Z,1015.9
2017-01-27T02:00:52.703Z,1015.85
2017-01-27T02:02:02.887Z,1015.86
2017-01-27T02:03:12.683Z,1015.91
2017-01-27T02:04:22.096Z,1015.91
2017-01-27T02:05:32.659Z,1015.87
2017-01-27T02:06:42.840Z,1015.89
2017-01-27T02:07:53.020Z,1015.88
2017-01-27T02:09:02.437Z,1015.95
2017-01-27T02:10:12.234Z,1015.94
2017-01-27T02:11:21.648Z,1015.91
2017-01-27T02:12:31.449Z,1015.91
2017-01-27T02:13:41.247Z,1015.91
2017-01-27T02:14:51.045Z,1015.91
2017-01-27T02:16:01.222Z,1015.85
2017-01-27T02:17:11.404Z,1015.84
2017-01-27T02:18:21.971Z,1015.82
2017-01-27T02:19:31.392Z,1015.87
2017-01-27T02:20:40.807Z,1015.77
2017-01-27T02:21:50.228Z,1015.75
2017-01-27T02:23:00.408Z,1015.67
2017-01-27T02:24:09.060Z,1015.68
2017-01-27T02:25:18.091Z,1015.66
2017-01-27T02:26:27.125Z,1015.61
2017-01-27T02:27:36.916Z,1015.64
2017-01-27T02:28:46.711Z,1015.59
2017-01-27T02:29:55.370Z,1015.52
2017-01-27T02:31:04.408Z,1015.55
2017-01-27T02:32:13.826Z,1015.49
2017-01-27T02:33:23.239Z,1015.51
2017-01-27T02:34:32.656Z,1015.46
2017-01-27T02:35:42.832Z,1015.43
2017-01-27T02:36:53.401Z,1015.46
2017-01-27T02:38:02.437Z,1015.52
2017-01-27T02:39:11.469Z,1015.53
2017-01-27T02:40:20.506Z,1015.49
2017-01-27T02:41:29.919Z,1015.53
2017-01-27T02:42:38.952Z,1015.53
2017-01-27T02:43:48.747Z,1015.63
2017-01-27T02:44:58.546Z,1015.6
2017-01-27T02:46:07.575Z,1015.6
2017-01-27T02:47:16.605Z,1015.61
2017-01-27T02:48:26.406Z,1015.54
2017-01-27T02:49:35.819Z,1015.52
2017-01-27T02:50:45.997Z,1015.53
2017-01-27T02:51:55.407Z,1015.55
2017-01-27T02:53:04.816Z,1015.49
2017-01-27T02:54:13.846Z,1015.48
2017-01-27T02:55:24.020Z,1015.51
2017-01-27T02:56:33.439Z,1015.5
2017-01-27T02:57:42.090Z,1015.43
2017-01-27T02:58:51.508Z,1015.44
2017-01-27T03:00:00.560Z,1015.51
2017-01-27T03:01:09.974Z,1015.51
2017-01-27T03:02:19.387Z,1015.46
2017-01-27T03:03:32.941Z,1015.49
2017-01-27T03:04:42.354Z,1015.59
2017-01-27T03:05:51.786Z,1015.67
2017-01-27T03:07:01.229Z,1015.66
2017-01-27T03:08:10.261Z,1015.66
2017-01-27T03:09:19.680Z,1015.76
2017-01-27T03:10:29.097Z,1015.77
2017-01-27T03:11:38.511Z,1015.76
2017-01-27T03:12:47.173Z,1015.78
2017-01-27T03:13:56.595Z,1015.85
2017-01-27T03:15:05.250Z,1015.85
2017-01-27T03:16:14.668Z,1015.74
2017-01-27T03:17:24.467Z,1015.72
2017-01-27T03:18:33.888Z,1015.84
2017-01-27T03:19:43.298Z,1015.82
2017-01-27T03:20:52.333Z,1015.76
2017-01-27T03:22:00.990Z,1015.87
2017-01-27T03:23:10.026Z,1015.86
2017-01-27T03:24:19.057Z,1015.75
2017-01-27T03:25:28.861Z,1015.77
2017-01-27T03:26:38.273Z,1015.72
2017-01-27T03:27:46.922Z,1015.69
2017-01-27T03:28:56.335Z,1015.73
2017-01-27T03:30:06.131Z,1015.77
2017-01-27T03:31:15.924Z,1015.81
2017-01-27T03:32:24.953Z,1015.71
2017-01-27T03:33:33.603Z,1015.64
2017-01-27T03:34:43.400Z,1015.54
2017-01-27T03:35:53.204Z,1015.68
2017-01-27T03:37:02.621Z,1015.78
2017-01-27T03:38:12.800Z,1015.71
2017-01-27T03:39:21.833Z,1015.65
2017-01-27T03:40:31.628Z,1015.69
2017-01-27T03:41:40.665Z,1015.68
2017-01-27T03:42:50.461Z,1015.64
2017-01-27T03:43:59.875Z,1015.68
2017-01-27T03:45:08.529Z,1015.7
2017-01-27T03:46:17.950Z,1015.75
2017-01-27T03:47:26.600Z,1015.77
2017-01-27T03:48:36.015Z,1015.68
2017-01-27T03:49:45.813Z,1015.9
2017-01-27T03:50:55.270Z,1015.81
2017-01-27T03:52:05.066Z,1015.78
2017-01-27T03:53:14.127Z,1015.94
2017-01-27T03:54:23.544Z,1015.89
2017-01-27T03:55:32.578Z,1015.95
2017-01-27T03:56:42.385Z,1015.9
2017-01-27T03:57:51.803Z,1015.79
2017-01-27T03:59:01.220Z,1015.83
2017-01-27T04:00:10.640Z,1015.72
2017-01-27T04:01:19.284Z,1015.67
2017-01-27T04:02:29.461Z,1015.56
2017-01-27T04:03:38.870Z,1015.61
2017-01-27T04:04:47.906Z,1015.6
2017-01-27T04:05:57.318Z,1015.55
2017-01-27T04:07:06.359Z,1015.56
2017-01-27T04:08:16.159Z,1015.46
2017-01-27T04:09:25.190Z,1015.45
2017-01-27T04:10:34.618Z,1015.45
2017-01-27T04:11:44.446Z,1015.54
2017-01-27T04:12:53.479Z,1015.51
2017-01-27T04:14:02.896Z,1015.54
2017-01-27T04:15:12.309Z,1015.62
2017-01-27T04:16:21.721Z,1015.68
2017-01-27T04:17:31.136Z,1015.56
2017-01-27T04:18:40.938Z,1015.54
2017-01-27T04:19:50.741Z,1015.58
2017-01-27T04:21:01.305Z,1015.43
2017-01-27T04:22:10.720Z,1015.55
2017-01-27T04:23:20.893Z,1015.57
2017-01-27T04:24:29.930Z,1015.58
2017-01-27T04:25:40.117Z,1015.54
2017-01-27T04:26:49.528Z,1015.57
2017-01-27T04:27:59.320Z,1015.46
2017-01-27T04:29:08.765Z,1015.36
2017-01-27T04:30:17.416Z,1015.35
2017-01-27T04:31:26.827Z,1015.25
2017-01-27T04:32:36.654Z,1015.34
2017-01-27T04:33:46.456Z,1015.32
2017-01-27T04:34:55.492Z,1015.29
2017-01-27T04:36:05.680Z,1015.29
2017-01-27T04:37:15.096Z,1015.32
2017-01-27T04:38:24.562Z,1015.36
2017-01-27T04:39:34.357Z,1015.36
2017-01-27T04:40:43.396Z,1015.36
2017-01-27T04:41:53.196Z,1015.28
2017-01-27T04:43:02.995Z,1015.37
2017-01-27T04:44:12.794Z,1015.36
2017-01-27T04:45:21.449Z,1015.3
2017-01-27T04:46:30.480Z,1015.21
2017-01-27T04:47:39.895Z,1015.24
2017-01-27T04:48:50.075Z,1015.24
2017-01-27T04:49:59.518Z,1015.2
2017-01-27T04:51:09.331Z,1015.22
2017-01-27T04:52:18.749Z,1015.3
2017-01-27T04:53:28.554Z,1015.31
2017-01-27T04:54:37.965Z,1015.21
2017-01-27T04:55:47.402Z,1015.17
2017-01-27T04:56:57.203Z,1015.34
2017-01-27T04:58:05.868Z,1015.37
2017-01-27T04:59:14.896Z,1015.33
2017-01-27T05:00:24.697Z,1015.35
2017-01-27T05:01:34.116Z,1015.33
2017-01-27T05:02:43.535Z,1015.23
2017-01-27T05:03:52.949Z,1015.28
2017-01-27T05:05:01.993Z,1015.22
2017-01-27T05:06:11.788Z,1015.2
2017-01-27T05:07:21.202Z,1015.18
2017-01-27T05:08:29.859Z,1015.09
2017-01-27T05:09:38.892Z,1015.12
2017-01-27T05:10:48.339Z,1015.13
2017-01-27T05:11:57.750Z,1015.09
2017-01-27T05:13:06.804Z,1015.13
2017-01-27T05:14:16.599Z,1015.1
2017-01-27T05:15:25.633Z,1015.06
2017-01-27T05:16:35.047Z,1015.11
2017-01-27T05:17:44.469Z,1015.15
2017-01-27T05:18:53.889Z,1015.03
2017-01-27T05:20:02.543Z,1015.15
2017-01-27T05:21:11.955Z,1015
2017-01-27T05:22:21.365Z,1015.03
2017-01-27T05:23:30.780Z,1015.03
2017-01-27T05:24:39.820Z,1014.93
2017-01-27T05:25:49.645Z,1014.93
2017-01-27T05:26:59.444Z,1014.91
2017-01-27T05:28:08.868Z,1014.93
2017-01-27T05:29:19.061Z,1015.07
2017-01-27T05:30:28.860Z,1015.11
2017-01-27T05:31:37.887Z,1015.13
2017-01-27T05:32:47.691Z,1015.08
2017-01-27T05:33:57.109Z,1015.11
2017-01-27T05:35:06.528Z,1015.14
2017-01-27T05:36:15.941Z,1015.09
2017-01-27T05:37:26.120Z,1015.03
2017-01-27T05:38:35.538Z,1015.02
2017-01-27T05:39:44.573Z,1014.94
2017-01-27T05:40:54.372Z,1014.86
2017-01-27T05:42:04.583Z,1014.87
2017-01-27T05:43:14.002Z,1015.08
2017-01-27T05:44:23.422Z,1015.21
2017-01-27T05:45:33.605Z,1015.13
2017-01-27T05:46:43.789Z,1015.08
2017-01-27T05:47:52.826Z,1015.06
2017-01-27T05:49:02.244Z,1015.02
2017-01-27T05:50:11.293Z,1014.99
2017-01-27T05:51:21.097Z,1014.97
2017-01-27T05:52:30.903Z,1015.03
2017-01-27T05:53:39.934Z,1015
2017-01-27T05:54:48.969Z,1015.02
2017-01-27T05:55:58.380Z,1014.97
2017-01-27T05:57:07.836Z,1015.05
2017-01-27T05:58:17.249Z,1015.13
2017-01-27T05:59:26.690Z,1015.12
2017-01-27T06:00:35.724Z,1015.07
2017-01-27T06:01:44.753Z,1015.15
2017-01-27T06:02:54.165Z,1015.07
2017-01-27T06:04:03.581Z,1015.12
2017-01-27T06:05:13.382Z,1015.1
2017-01-27T06:06:22.414Z,1015.09
2017-01-27T06:07:31.831Z,1015.06
2017-01-27T06:08:42.010Z,1015.08
2017-01-27T06:09:51.422Z,1015.14
2017-01-27T06:11:00.073Z,1015.17
2017-01-27T06:12:09.482Z,1015.15
2017-01-27T06:13:18.135Z,1015.17
2017-01-27T06:14:27.559Z,1015.17
2017-01-27T06:15:36.971Z,1015.29
2017-01-27T06:16:46.382Z,1015.32
2017-01-27T06:17:55.412Z,1015.24
2017-01-27T06:19:04.828Z,1015.17
2017-01-27T06:20:14.629Z,1015.23
2017-01-27T06:21:24.811Z,1015.14
2017-01-27T06:22:34.612Z,1015.14
2017-01-27T06:23:44.798Z,1015.15
2017-01-27T06:24:54.981Z,1015.12
2017-01-27T06:26:05.172Z,1015.15
2017-01-27T06:27:14.644Z,1015.26
2017-01-27T06:28:24.452Z,1015.25
2017-01-27T06:29:34.258Z,1015.26
2017-01-27T06:30:43.334Z,1015.22
2017-01-27T06:31:52.752Z,1015.23
2017-01-27T06:33:01.817Z,1015.16
2017-01-27T06:34:10.916Z,1015.13
2017-01-27T06:35:19.948Z,1015.13
2017-01-27T06:36:29.753Z,1015.1
2017-01-27T06:37:40.317Z,1015.13
2017-01-27T06:38:49.731Z,1015.08
2017-01-27T06:39:59.533Z,1015.16
2017-01-27T06:41:09.339Z,1015.15
2017-01-27T06:42:19.903Z,1015.17
2017-01-27T06:43:29.706Z,1015.13
2017-01-27T06:44:39.130Z,1015.17
2017-01-27T06:45:48.935Z,1015.24
2017-01-27T06:46:58.738Z,1015.14
2017-01-27T06:48:08.538Z,1015.2
2017-01-27T06:49:18.338Z,1015.24
2017-01-27T06:50:27.374Z,1015.18
2017-01-27T06:51:36.402Z,1015.22
2017-01-27T06:52:45.815Z,1015.19
2017-01-27T06:53:55.233Z,1015.16
2017-01-27T06:55:04.663Z,1015.19
2017-01-27T06:56:14.842Z,1015.18
2017-01-27T06:57:23.927Z,1015.2
2017-01-27T06:58:32.958Z,1015.1
2017-01-27T06:59:42.764Z,1015.11
2017-01-27T07:00:51.801Z,1015.06
2017-01-27T07:02:01.213Z,1015.03
2017-01-27T07:03:09.867Z,1015.08
2017-01-27T07:04:18.522Z,1015.07
2017-01-27T07:05:27.945Z,1015.03
2017-01-27T07:06:37.371Z,1015.09
2017-01-27T07:07:46.793Z,1015.18
2017-01-27T07:08:56.214Z,1015.12
2017-01-27T07:10:05.629Z,1015.28
2017-01-27T07:11:14.668Z,1015.24
2017-01-27T07:12:23.694Z,1015.26
2017-01-27T07:13:32.730Z,1015.22
2017-01-27T07:14:42.161Z,1015.21
2017-01-27T07:15:51.971Z,1015.22
2017-01-27T07:17:01.011Z,1015.22
2017-01-27T07:18:10.824Z,1015.24
2017-01-27T07:19:20.999Z,1015.14
2017-01-27T07:20:30.420Z,1015.2
2017-01-27T07:21:40.220Z,1015.18
2017-01-27T07:22:50.051Z,1015.16
2017-01-27T07:23:59.466Z,1015.2
2017-01-27T07:25:08.506Z,1015.2
2017-01-27T07:26:17.534Z,1015.25
2017-01-27T07:27:26.577Z,1015.19
2017-01-27T07:28:35.237Z,1015.09
2017-01-27T07:29:44.272Z,1015.11
2017-01-27T07:30:54.069Z,1015.11
2017-01-27T07:32:03.492Z,1015.05
2017-01-27T07:33:12.905Z,1015.1
2017-01-27T07:34:22.706Z,1015.08
2017-01-27T07:35:31.747Z,1015.06
2017-01-27T07:36:41.161Z,1015.14
2017-01-27T07:37:51.346Z,1015.09
2017-01-27T07:39:01.529Z,1015.1
2017-01-27T07:40:11.329Z,1015.1
2017-01-27T07:41:20.361Z,1015.06
2017-01-27T07:42:30.158Z,1015.06
2017-01-27T07:43:38.818Z,1015.03
2017-01-27T07:44:48.236Z,1015.12
2017-01-27T07:45:57.654Z,1015.13
2017-01-27T07:47:06.688Z,1015.15
2017-01-27T07:48:15.731Z,1015.15
2017-01-27T07:49:25.148Z,1015.14
2017-01-27T07:50:33.807Z,1015.12
2017-01-27T07:51:43.259Z,1015.16
2017-01-27T07:52:52.292Z,1015.19
2017-01-27T07:54:01.710Z,1015.22
2017-01-27T07:55:11.127Z,1015.23
2017-01-27T07:56:20.541Z,1015.19
2017-01-27T07:57:29.579Z,1015.11
2017-01-27T07:58:38.616Z,1015.13
2017-01-27T07:59:48.035Z,1015.26
2017-01-27T08:00:57.068Z,1015.19
2017-01-27T08:02:06.106Z,1015.25
2017-01-27T08:03:15.141Z,1015.23
2017-01-27T08:04:24.183Z,1015.24
2017-01-27T08:05:32.838Z,1015.2
2017-01-27T08:06:42.253Z,1015.2
2017-01-27T08:07:51.707Z,1015.18
2017-01-27T08:09:01.511Z,1015.21
2017-01-27T08:10:10.947Z,1015.18
2017-01-27T08:11:19.984Z,1015.13
2017-01-27T08:12:29.794Z,1015.17
2017-01-27T08:13:39.214Z,1015.13
2017-01-27T08:14:48.642Z,1015.14
2017-01-27T08:15:58.447Z,1015.17
2017-01-27T08:17:07.858Z,1015.1
2017-01-27T08:18:17.269Z,1015.18
2017-01-27T08:19:26.304Z,1015.16
2017-01-27T08:20:35.336Z,1015.16
2017-01-27T08:21:45.135Z,1015.08
2017-01-27T08:22:53.785Z,1015.14
2017-01-27T08:24:02.848Z,1015.13
2017-01-27T08:25:12.650Z,1015.12
2017-01-27T08:26:22.062Z,1015.12
2017-01-27T08:27:30.712Z,1015.14
2017-01-27T08:28:39.749Z,1015.14
2017-01-27T08:29:49.931Z,1015.1
2017-01-27T08:30:59.347Z,1015.17
2017-01-27T08:32:08.763Z,1015.24
2017-01-27T08:33:18.176Z,1015.22
2017-01-27T08:34:27.595Z,1015.19
2017-01-27T08:35:36.247Z,1015.24
2017-01-27T08:36:44.897Z,1015.19
2017-01-27T08:37:53.930Z,1015.19
2017-01-27T08:39:02.961Z,1015.21
2017-01-27T08:40:12.759Z,1015.23
2017-01-27T08:41:22.556Z,1015.26
2017-01-27T08:42:31.977Z,1015.32
2017-01-27T08:43:41.017Z,1015.4
2017-01-27T08:44:51.199Z,1015.35
2017-01-27T08:46:00.624Z,1015.37
2017-01-27T08:47:10.429Z,1015.38
2017-01-27T08:48:19.847Z,1015.37
2017-01-27T08:49:28.505Z,1015.35
2017-01-27T08:50:37.923Z,1015.29
2017-01-27T08:51:47.724Z,1015.35
2017-01-27T08:52:57.140Z,1015.38
2017-01-27T08:54:06.971Z,1015.42
2017-01-27T08:55:15.636Z,1015.47
2017-01-27T08:56:25.097Z,1015.43
2017-01-27T08:57:35.289Z,1015.47
2017-01-27T08:58:45.185Z,1015.42
2017-01-27T08:59:54.987Z,1015.5
2017-01-27T09:01:04.791Z,1015.54
2017-01-27T09:02:13.828Z,1015.49
2017-01-27T09:03:23.249Z,1015.53
2017-01-27T09:04:33.051Z,1015.51
2017-01-27T09:05:42.849Z,1015.52
2017-01-27T09:06:52.275Z,1015.53
2017-01-27T09:08:02.083Z,1015.55
2017-01-27T09:09:11.120Z,1015.56
2017-01-27T09:10:20.160Z,1015.55
2017-01-27T09:11:29.958Z,1015.55
2017-01-27T09:12:39.767Z,1015.63
2017-01-27T09:13:48.808Z,1015.62
2017-01-27T09:14:58.994Z,1015.68
2017-01-27T09:16:08.850Z,1015.66
2017-01-27T09:17:18.272Z,1015.68
2017-01-27T09:18:27.694Z,1015.75
2017-01-27T09:19:37.883Z,1015.74
2017-01-27T09:20:48.071Z,1015.75
2017-01-27T09:21:58.259Z,1015.68
2017-01-27T09:23:08.056Z,1015.74
2017-01-27T09:24:17.858Z,1015.63
2017-01-27T09:25:26.511Z,1015.75
2017-01-27T09:26:35.547Z,1015.7
2017-01-27T09:27:45.347Z,1015.71
2017-01-27T09:28:55.147Z,1015.71
2017-01-27T09:30:04.571Z,1015.75
2017-01-27T09:31:13.227Z,1015.71
2017-01-27T09:32:22.262Z,1015.69
2017-01-27T09:33:31.731Z,1015.74
2017-01-27T09:34:40.767Z,1015.71
2017-01-27T09:35:50.192Z,1015.74
2017-01-27T09:36:59.233Z,1015.77
2017-01-27T09:38:09.037Z,1015.8
2017-01-27T09:39:18.845Z,1015.79
2017-01-27T09:40:28.653Z,1015.73
2017-01-27T09:41:38.076Z,1015.8
2017-01-27T09:42:47.120Z,1015.82
2017-01-27T09:43:56.534Z,1015.78
2017-01-27T09:45:06.340Z,1015.76
2017-01-27T09:46:15.759Z,1015.81
2017-01-27T09:47:25.186Z,1015.84
2017-01-27T09:48:34.992Z,1015.81
2017-01-27T09:49:44.821Z,1015.83
2017-01-27T09:50:54.623Z,1015.84
2017-01-27T09:52:04.047Z,1015.79
2017-01-27T09:53:13.845Z,1015.79
2017-01-27T09:54:22.875Z,1015.78
2017-01-27T09:55:31.532Z,1015.83
2017-01-27T09:56:40.573Z,1015.82
2017-01-27T09:57:50.372Z,1015.83
2017-01-27T09:58:59.408Z,1015.8
2017-01-27T10:00:08.448Z,1015.82
2017-01-27T10:01:17.485Z,1015.86
2017-01-27T10:02:26.910Z,1015.91
2017-01-27T10:03:35.951Z,1015.88
2017-01-27T10:04:44.990Z,1015.9
2017-01-27T10:05:54.412Z,1015.91
2017-01-27T10:07:03.446Z,1015.92
2017-01-27T10:08:12.873Z,1015.9
2017-01-27T10:09:22.684Z,1015.9
2017-01-27T10:10:32.487Z,1015.81
2017-01-27T10:11:41.911Z,1015.75
2017-01-27T10:12:50.953Z,1015.83
2017-01-27T10:14:00.370Z,1015.84
2017-01-27T10:15:09.405Z,1015.83
2017-01-27T10:16:18.060Z,1015.87
2017-01-27T10:17:27.095Z,1015.83
2017-01-27T10:18:36.902Z,1015.82
2017-01-27T10:19:46.319Z,1015.82
2017-01-27T10:20:54.979Z,1015.82
2017-01-27T10:22:04.783Z,1015.74
2017-01-27T10:23:13.822Z,1015.82
2017-01-27T10:24:22.890Z,1015.83
2017-01-27T10:25:31.932Z,1015.76
2017-01-27T10:26:40.595Z,1015.78
2017-01-27T10:27:50.811Z,1015.76
2017-01-27T10:28:59.845Z,1015.68
2017-01-27T10:30:09.268Z,1015.61
2017-01-27T10:31:18.358Z,1015.7
2017-01-27T10:32:27.788Z,1015.74
2017-01-27T10:33:37.977Z,1015.7
2017-01-27T10:34:47.021Z,1015.75
2017-01-27T10:35:56.060Z,1015.82
2017-01-27T10:37:05.534Z,1015.83
2017-01-27T10:38:14.570Z,1015.86
2017-01-27T10:39:23.991Z,1015.89
2017-01-27T10:40:33.813Z,1015.95
2017-01-27T10:41:43.246Z,1015.93
2017-01-27T10:42:52.286Z,1015.97
2017-01-27T10:44:01.332Z,1015.98
2017-01-27T10:45:11.145Z,1015.97
2017-01-27T10:46:20.570Z,1016
2017-01-27T10:47:30.375Z,1015.92
2017-01-27T10:48:40.185Z,1016.02
2017-01-27T10:49:50.030Z,1015.99
2017-01-27T10:50:59.067Z,1016.03
2017-01-27T10:52:08.496Z,1016.02
2017-01-27T10:53:18.309Z,1016.07
2017-01-27T10:54:28.500Z,1016.06
2017-01-27T10:55:37.930Z,1016.07
2017-01-27T10:56:47.359Z,1016.04
2017-01-27T10:57:57.172Z,1016.04
2017-01-27T10:59:06.987Z,1016
2017-01-27T11:00:17.171Z,1016.02
2017-01-27T11:01:26.223Z,1016.01
2017-01-27T11:02:36.415Z,1015.84
2017-01-27T11:03:46.227Z,1015.94
2017-01-27T11:04:56.040Z,1015.89
2017-01-27T11:06:05.853Z,1015.92
2017-01-27T11:07:15.670Z,1015.86
2017-01-27T11:08:25.097Z,1015.86
2017-01-27T11:09:34.904Z,1015.79
2017-01-27T11:10:45.099Z,1015.87
2017-01-27T11:11:54.526Z,1015.82
2017-01-27T11:13:04.794Z,1015.77
2017-01-27T11:14:14.224Z,1015.7
2017-01-27T11:15:23.275Z,1015.73
2017-01-27T11:16:33.091Z,1015.74
2017-01-27T11:17:42.519Z,1015.67
2017-01-27T11:18:51.943Z,1015.71
2017-01-27T11:20:01.374Z,1015.69
2017-01-27T11:21:10.800Z,1015.68
2017-01-27T11:22:19.842Z,1015.65
2017-01-27T11:23:28.885Z,1015.7
2017-01-27T11:24:39.078Z,1015.65
2017-01-27T11:25:48.121Z,1015.67
2017-01-27T11:26:56.783Z,1015.67
2017-01-27T11:28:06.206Z,1015.65
2017-01-27T11:29:15.250Z,1015.63
2017-01-27T11:30:24.287Z,1015.61
2017-01-27T11:31:33.354Z,1015.55
2017-01-27T11:32:43.185Z,1015.57
2017-01-27T11:33:52.612Z,1015.55
2017-01-27T11:35:01.652Z,1015.56
2017-01-27T11:36:11.076Z,1015.56
2017-01-27T11:37:20.499Z,1015.59
2017-01-27T11:38:29.922Z,1015.57
2017-01-27T11:39:39.353Z,1015.56
2017-01-27T11:40:49.188Z,1015.54
2017-01-27T11:41:58.608Z,1015.54
2017-01-27T11:43:08.027Z,1015.52
2017-01-27T11:44:17.445Z,1015.54
2017-01-27T11:45:27.247Z,1015.54
2017-01-27T11:46:36.674Z,1015.53
2017-01-27T11:47:45.724Z,1015.54
2017-01-27T11:48:54.770Z,1015.56
2017-01-27T11:50:04.226Z,1015.57
2017-01-27T11:51:13.675Z,1015.56
2017-01-27T11:52:23.094Z,1015.55
2017-01-27T11:53:32.136Z,1015.65
2017-01-27T11:54:41.940Z,1015.61
2017-01-27T11:55:51.362Z,1015.58
2017-01-27T11:57:00.409Z,1015.56
2017-01-27T11:58:09.507Z,1015.64
2017-01-27T11:59:18.929Z,1015.64
2017-01-27T12:00:27.969Z,1015.67
2017-01-27T12:01:38.172Z,1015.66
2017-01-27T12:02:47.216Z,1015.64
2017-01-27T12:03:56.638Z,1015.63
2017-01-27T12:05:05.684Z,1015.59
2017-01-27T12:06:14.729Z,1015.6
2017-01-27T12:07:24.537Z,1015.57
2017-01-27T12:08:33.956Z,1015.63
2017-01-27T12:09:43.833Z,1015.63
2017-01-27T12:10:52.885Z,1015.62
2017-01-27T12:12:01.925Z,1015.65
2017-01-27T12:13:11.737Z,1015.66
2017-01-27T12:14:21.924Z,1015.59
2017-01-27T12:15:31.347Z,1015.56
2017-01-27T12:16:41.167Z,1015.57
2017-01-27T12:17:50.214Z,1015.52
2017-01-27T12:18:59.254Z,1015.55
2017-01-27T12:20:08.725Z,1015.58
2017-01-27T12:21:17.762Z,1015.59
2017-01-27T12:22:26.424Z,1015.54
2017-01-27T12:23:35.846Z,1015.46
2017-01-27T12:24:45.269Z,1015.43
2017-01-27T12:25:54.688Z,1015.42
2017-01-27T12:27:03.733Z,1015.42
2017-01-27T12:28:12.776Z,1015.34
2017-01-27T12:29:22.579Z,1015.35
2017-01-27T12:30:31.624Z,1015.36
2017-01-27T12:31:41.810Z,1015.36
2017-01-27T12:32:50.862Z,1015.33
2017-01-27T12:33:59.912Z,1015.34
2017-01-27T12:35:09.733Z,1015.37
2017-01-27T12:36:19.542Z,1015.37
2017-01-27T12:37:28.588Z,1015.35
2017-01-27T12:38:38.014Z,1015.3
2017-01-27T12:39:47.824Z,1015.26
2017-01-27T12:40:57.247Z,1015.31
2017-01-27T12:42:07.057Z,1015.31
2017-01-27T12:43:15.712Z,1015.32
2017-01-27T12:44:24.752Z,1015.4
2017-01-27T12:45:34.469Z,1015.36
2017-01-27T12:46:48.957Z,1015.36
2017-01-27T12:48:01.325Z,1015.35
2017-01-27T12:49:24.084Z,1015.29
2017-01-27T12:50:44.717Z,1015.34
2017-01-27T12:52:02.730Z,1015.27
2017-01-27T12:53:16.760Z,1015.32
2017-01-27T12:54:31.931Z,1015.33
2017-01-27T12:55:50.735Z,1015.32
2017-01-27T12:57:02.011Z,1015.3
2017-01-27T12:58:22.548Z,1015.35
2017-01-27T12:59:32.007Z,1015.28
2017-01-27T13:00:41.058Z,1015.31
2017-01-27T13:01:50.866Z,1015.27
2017-01-27T13:02:59.906Z,1015.31
2017-01-27T13:04:09.339Z,1015.27
2017-01-27T13:05:18.388Z,1015.27
2017-01-27T13:06:27.431Z,1015.23
2017-01-27T13:07:36.480Z,1015.23
2017-01-27T13:08:45.524Z,1015.23
2017-01-27T13:09:54.569Z,1015.22
2017-01-27T13:11:03.629Z,1015.25
2017-01-27T13:12:13.061Z,1015.24
2017-01-27T13:13:22.866Z,1015.22
2017-01-27T13:14:33.062Z,1015.23
2017-01-27T13:15:42.873Z,1015.22
2017-01-27T13:16:52.299Z,1015.28
2017-01-27T13:18:01.733Z,1015.26
2017-01-27T13:19:11.541Z,1015.31
2017-01-27T13:20:21.348Z,1015.29
2017-01-27T13:21:30.779Z,1015.32
2017-01-27T13:22:39.827Z,1015.28
2017-01-27T13:23:49.637Z,1015.24
2017-01-27T13:24:58.679Z,1015.24
2017-01-27T13:26:08.106Z,1015.24
2017-01-27T13:27:17.920Z,1015.26
2017-01-27T13:28:27.730Z,1015.19
2017-01-27T13:29:36.775Z,1015.18
2017-01-27T13:30:45.437Z,1015.21
2017-01-27T13:31:55.247Z,1015.24
2017-01-27T13:33:05.058Z,1015.23
2017-01-27T13:34:14.866Z,1015.17
2017-01-27T13:35:24.681Z,1015.23
2017-01-27T13:36:34.498Z,1015.26
2017-01-27T13:37:44.318Z,1015.25
2017-01-27T13:38:54.511Z,1015.26
2017-01-27T13:40:04.317Z,1015.26
2017-01-27T13:41:13.367Z,1015.28
2017-01-27T13:42:22.408Z,1015.22
2017-01-27T13:43:31.835Z,1015.22
2017-01-27T13:44:41.660Z,1015.23
2017-01-27T13:45:51.093Z,1015.25
2017-01-27T13:47:00.140Z,1015.2
2017-01-27T13:48:09.185Z,1015.16
2017-01-27T13:49:18.232Z,1015.14
2017-01-27T13:50:27.657Z,1015.15
2017-01-27T13:51:37.081Z,1015.08
2017-01-27T13:52:46.123Z,1015.15
2017-01-27T13:53:55.165Z,1015.11
2017-01-27T13:55:03.828Z,1015.16
2017-01-27T13:56:13.255Z,1015.16
2017-01-27T13:57:22.690Z,1015.13
2017-01-27T13:58:32.118Z,1015.15
2017-01-27T13:59:41.936Z,1015.1
2017-01-27T14:00:52.130Z,1015.09
2017-01-27T14:02:01.555Z,1015.08
2017-01-27T14:03:10.978Z,1015.15